KLVJ Airport (Pearland Rgnl) Information

FAA: LVJ - ICAO: KLVJ

KLVJ Airport Location

State Texas
County Brazoria
City Houston
KLVJ Airport is 17 miles south of Houston, TX.
Latitude 29-31-16.6000N
Longitude 095-14-31.7000W
Elevation 43ft

KLVJ Airport METARs

METAR KLVJ 121406Z AUTO 00000KT 8SM FEW090 26/25 A3001 RMK AO2 RAE1355 P0000 T02610250
Altimeter 30.01"
Temperature 26.1°C (79.0°F)
Wind 0° at 0KT
Clouds few at 9,000ft
Visibility 8.0mi
Time observed: 2022-08-12T14:06:00Z

KLVJ Airport Details

Status Operational
Activation October 1950
Ownership Private
Usage Public
Chart HOUSTON
ATC on-site No
Beacon schedule sunset-sunrise
Beacon color clear green

KLVJ Airport Contacts

Owner CLOVER ACQUISITION CORP.
Owner address 17622 AIRFIELD LN, PEARLAND, TX 77581
Owner phone 281-482-7551
Manager RON FRANKS
Manager address 3500 COUNTY ROAD 416A, HENDERSON, TX 75654
Manager phone 903-657-7081

KLVJ Airport (Pearland Rgnl) Radio Frequencies

KLVJ (Airport) Radio Frequencies

UNICOM 122.8
Common traffic advisory frequency (CTAF) 122.8